GFLLGLRB

Guest
Details From GFLL - FREETOWN LUNGI
To GLRB - MONROVIA ROBERTS INTL
Flight Number -
Tags generated
Created
Modified
Stats Distance 222 nm / 410 km
Max Altitude 27,600 ft / 8,412 m
Waypoints 4
Social Downloads 0
Likes 0
Share VATSIM

Download

Looking for another format? Having issues loading an existing format? Contact us
Advertisement - Login to hide

Notes

Basic altitude profile: - Ascent Rate: 2500ft/min - Ascent Speed: 250kts - Cruise Altitude: 35000ft - Cruise Speed: 420kts - Descent Rate: 1500ft/min - Descent Speed: 250kts Options: - Use NATs: yes - Use PACOTS: yes - Use low airways: yes - Use high airways: yes

Route

GFLL MATRU B614 ROB GLRB

ID Type Via Altitude Latitude Longitude Leg Dist Tot Dist Heading (true) Name
O GFLL APT - 0 ft / 0 m 8.61644˚ -13.19549˚ - 0 nm - FREETOWN LUNGI
MATRU FIX - 27,600 ft / 8,412 m 7.66674˚ -12.06648˚ 88 nm 88 nm 130° / 130° -
ROB VOR B614 (AWY-LO) 5,000 ft / 1,524 m 6.23954˚ -10.35828˚ 133 nm 221 nm 130° / 130° MONROVIA ROBERTS VOR-DME
O GLRB APT - 0 ft / 0 m 6.23379˚ -10.36231˚ 0 nm 221 nm 215° / 215° MONROVIA ROBERTS INTL

Altitude Profile

Advertisement - Login to hide

Weather


0- 5 10 15 20 25 30 35+ Temperature / ° C

Clouds and Precipitation
Forecast for 2017-12-16 18:00 UTC. Updated 2 hours ago

Ground ~20,000 ft ~40,000 ft Winds

GFLL

Details ICAO GFLL (FNA)
Name FREETOWN LUNGI
Region Sierra Leone
Timezone Africa/Freetown (UTC+0.0)
Stats Elevation 84 ft / 26 m (AMSL)
Location 8.616443° -13.195489°
Runways 1
Magnetic Variation 7.109° W

METAR

GFLL 161800Z 27008KT 7000 HZ SCT014 30/20 Q1010

Decode

TAF

TAF TAF GFLL 161600Z 1618/1724 09009KT 8000 HZ SCT014 PROB30 TEMPO 1620/1703 TS BKN012 FEW027CB BECMG 1705/1707 VRB03KT 4000 BR BKN010 TEMPO 08006KT 7000 HZ NSC TEMPO 9000 HZ SCT013

Decode

Departure Runways

ID Width Length Bearing (true) Bearing (mag) Surface Threshold Offset Overrun Length
12 150 ft / 46 m 10,507 ft / 3,203 m 107.14° 114.25° Asphalt 0 ft / 0 m 394 ft / 120 m
30 150 ft / 46 m 10,507 ft / 3,203 m 287.14° 294.25° Asphalt 0 ft / 0 m 197 ft / 60 m

GLRB

Details ICAO GLRB (ROB)
Name MONROVIA ROBERTS INTL
Region Liberia
Timezone Africa/Monrovia (UTC+0.0)
Stats Elevation 31 ft / 9 m (AMSL)
Location 6.233790° -10.362312°
Runways 1
Magnetic Variation 6.703° W

METAR

GLRB 161900Z 00000KT 9999 FEW014 SCT100 26/25 Q1011 NOSIG

Decode

TAF

TAF GLRB 161600Z 1618/1724 23008KT 9999 SCT016 BECMG 1620/1622 00000KT 8000 FEW014 TEMPO 1701/1705 5000 BR SCT004 SCT010

Decode

Destination Runways

ID Width Length Bearing (true) Bearing (mag) Surface Threshold Offset Overrun Length
04 150 ft / 46 m 11,029 ft / 3,362 m 30.94° 37.64° Asphalt 0 ft / 0 m 0 ft / 0 m
22 150 ft / 46 m 11,029 ft / 3,362 m 210.94° 217.64° Asphalt 1,200 ft / 366 m 0 ft / 0 m

Popular Alternatives